sensor_id;sensor_type;location;lat;lon;timestamp;P1;durP1;ratioP1;P2;durP2;ratioP2
38262;SDS011;24054;50.128;19.730;2022-09-20T00:03:56;4.82;;;3.97;;
38262;SDS011;24054;50.128;19.730;2022-09-20T00:08:53;4.70;;;3.78;;
38262;SDS011;24054;50.128;19.730;2022-09-20T00:11:22;4.38;;;3.97;;
38262;SDS011;24054;50.128;19.730;2022-09-20T00:13:50;4.75;;;4.05;;
38262;SDS011;24054;50.128;19.730;2022-09-20T00:18:48;4.93;;;3.90;;
38262;SDS011;24054;50.128;19.730;2022-09-20T00:21:15;4.68;;;4.05;;
38262;SDS011;24054;50.128;19.730;2022-09-20T00:23:44;4.22;;;3.83;;
38262;SDS011;24054;50.128;19.730;2022-09-20T00:26:11;5.18;;;4.68;;
38262;SDS011;24054;50.128;19.730;2022-09-20T00:28:39;5.27;;;4.10;;
38262;SDS011;24054;50.128;19.730;2022-09-20T00:31:06;4.53;;;3.75;;
38262;SDS011;24054;50.128;19.730;2022-09-20T00:33:34;4.97;;;4.07;;
38262;SDS011;24054;50.128;19.730;2022-09-20T00:36:18;5.00;;;3.60;;
38262;SDS011;24054;50.128;19.730;2022-09-20T00:38:45;4.32;;;3.92;;
38262;SDS011;24054;50.128;19.730;2022-09-20T00:41:12;4.93;;;3.92;;
38262;SDS011;24054;50.128;19.730;2022-09-20T00:43:41;5.70;;;4.32;;
38262;SDS011;24054;50.128;19.730;2022-09-20T00:46:14;4.40;;;4.00;;
38262;SDS011;24054;50.128;19.730;2022-09-20T00:48:49;4.97;;;4.10;;
38262;SDS011;24054;50.128;19.730;2022-09-20T00:51:19;4.75;;;4.20;;
38262;SDS011;24054;50.128;19.730;2022-09-20T00:53:50;4.72;;;4.00;;
38262;SDS011;24054;50.128;19.730;2022-09-20T00:56:19;4.28;;;3.58;;
38262;SDS011;24054;50.128;19.730;2022-09-20T00:58:49;5.47;;;3.80;;
38262;SDS011;24054;50.128;19.730;2022-09-20T01:01:19;5.07;;;4.20;;
38262;SDS011;24054;50.128;19.730;2022-09-20T01:03:46;4.50;;;4.05;;
38262;SDS011;24054;50.128;19.730;2022-09-20T01:06:15;4.38;;;3.72;;
38262;SDS011;24054;50.128;19.730;2022-09-20T01:08:44;5.78;;;4.55;;
38262;SDS011;24054;50.128;19.730;2022-09-20T01:11:14;6.18;;;3.80;;
38262;SDS011;24054;50.128;19.730;2022-09-20T01:13:41;4.70;;;4.20;;
38262;SDS011;24054;50.128;19.730;2022-09-20T01:16:08;6.25;;;3.88;;
38262;SDS011;24054;50.128;19.730;2022-09-20T01:18:37;5.35;;;4.20;;
38262;SDS011;24054;50.128;19.730;2022-09-20T01:21:08;5.82;;;4.18;;
38262;SDS011;24054;50.128;19.730;2022-09-20T01:23:43;5.20;;;4.20;;
38262;SDS011;24054;50.128;19.730;2022-09-20T01:26:22;4.40;;;3.80;;
38262;SDS011;24054;50.128;19.730;2022-09-20T01:29:12;5.80;;;4.78;;
38262;SDS011;24054;50.128;19.730;2022-09-20T01:31:50;5.15;;;4.20;;
38262;SDS011;24054;50.128;19.730;2022-09-20T01:34:21;4.43;;;4.03;;
38262;SDS011;24054;50.128;19.730;2022-09-20T01:36:53;5.40;;;4.05;;
38262;SDS011;24054;50.128;19.730;2022-09-20T01:39:31;4.80;;;4.03;;
38262;SDS011;24054;50.128;19.730;2022-09-20T01:42:05;4.22;;;3.83;;
38262;SDS011;24054;50.128;19.730;2022-09-20T01:44:37;4.40;;;3.95;;
38262;SDS011;24054;50.128;19.730;2022-09-20T01:47:14;4.70;;;4.18;;
38262;SDS011;24054;50.128;19.730;2022-09-20T01:49:51;5.60;;;4.07;;
38262;SDS011;24054;50.128;19.730;2022-09-20T01:55:30;4.82;;;4.20;;
38262;SDS011;24054;50.128;19.730;2022-09-20T01:58:43;5.45;;;4.13;;
38262;SDS011;24054;50.128;19.730;2022-09-20T02:01:44;5.57;;;4.03;;
38262;SDS011;24054;50.128;19.730;2022-09-20T02:04:37;5.07;;;4.07;;
38262;SDS011;24054;50.128;19.730;2022-09-20T02:07:20;5.28;;;3.97;;
38262;SDS011;24054;50.128;19.730;2022-09-20T02:13:08;4.78;;;4.00;;
38262;SDS011;24054;50.128;19.730;2022-09-20T02:18:36;4.45;;;4.03;;
38262;SDS011;24054;50.128;19.730;2022-09-20T02:21:20;4.93;;;4.05;;
38262;SDS011;24054;50.128;19.730;2022-09-20T02:23:57;4.32;;;3.72;;
38262;SDS011;24054;50.128;19.730;2022-09-20T02:26:36;4.40;;;4.00;;
38262;SDS011;24054;50.128;19.730;2022-09-20T02:29:12;4.57;;;4.07;;
38262;SDS011;24054;50.128;19.730;2022-09-20T02:31:51;5.20;;;4.43;;
38262;SDS011;24054;50.128;19.730;2022-09-20T02:34:40;4.90;;;4.00;;
38262;SDS011;24054;50.128;19.730;2022-09-20T02:37:43;4.00;;;3.45;;
38262;SDS011;24054;50.128;19.730;2022-09-20T02:40:23;4.00;;;3.60;;
38262;SDS011;24054;50.128;19.730;2022-09-20T02:43:02;5.00;;;3.63;;
38262;SDS011;24054;50.128;19.730;2022-09-20T02:45:38;4.32;;;3.85;;
38262;SDS011;24054;50.128;19.730;2022-09-20T02:48:10;4.13;;;3.72;;
38262;SDS011;24054;50.128;19.730;2022-09-20T02:50:46;4.20;;;3.80;;
38262;SDS011;24054;50.128;19.730;2022-09-20T02:53:25;3.90;;;3.53;;
38262;SDS011;24054;50.128;19.730;2022-09-20T02:56:01;5.05;;;4.13;;
38262;SDS011;24054;50.128;19.730;2022-09-20T02:58:36;3.83;;;3.47;;
38262;SDS011;24054;50.128;19.730;2022-09-20T03:01:16;4.43;;;3.95;;
38262;SDS011;24054;50.128;19.730;2022-09-20T03:03:53;4.25;;;3.60;;
38262;SDS011;24054;50.128;19.730;2022-09-20T03:06:32;4.95;;;4.10;;
38262;SDS011;24054;50.128;19.730;2022-09-20T03:09:10;3.95;;;3.55;;
38262;SDS011;24054;50.128;19.730;2022-09-20T03:11:46;4.07;;;3.47;;
38262;SDS011;24054;50.128;19.730;2022-09-20T03:14:18;4.32;;;3.83;;
38262;SDS011;24054;50.128;19.730;2022-09-20T03:16:50;4.55;;;3.80;;
38262;SDS011;24054;50.128;19.730;2022-09-20T03:19:34;4.05;;;3.65;;
38262;SDS011;24054;50.128;19.730;2022-09-20T03:22:17;3.92;;;3.53;;
38262;SDS011;24054;50.128;19.730;2022-09-20T03:24:56;4.10;;;3.70;;
38262;SDS011;24054;50.128;19.730;2022-09-20T03:30:12;4.18;;;3.78;;
38262;SDS011;24054;50.128;19.730;2022-09-20T03:32:52;4.53;;;3.53;;
38262;SDS011;24054;50.128;19.730;2022-09-20T03:35:34;3.83;;;3.50;;
38262;SDS011;24054;50.128;19.730;2022-09-20T03:38:20;4.10;;;3.70;;
38262;SDS011;24054;50.128;19.730;2022-09-20T03:41:05;4.35;;;3.53;;
38262;SDS011;24054;50.128;19.730;2022-09-20T03:43:49;3.42;;;3.13;;
38262;SDS011;24054;50.128;19.730;2022-09-20T03:46:26;4.15;;;3.50;;
38262;SDS011;24054;50.128;19.730;2022-09-20T03:52:15;3.58;;;3.22;;
38262;SDS011;24054;50.128;19.730;2022-09-20T03:55:02;3.40;;;3.05;;
38262;SDS011;24054;50.128;19.730;2022-09-20T03:57:59;3.67;;;3.30;;
38262;SDS011;24054;50.128;19.730;2022-09-20T04:00:51;3.92;;;3.50;;
38262;SDS011;24054;50.128;19.730;2022-09-20T04:03:32;4.18;;;3.55;;
38262;SDS011;24054;50.128;19.730;2022-09-20T04:06:14;3.55;;;3.22;;
38262;SDS011;24054;50.128;19.730;2022-09-20T04:09:13;3.80;;;3.30;;
38262;SDS011;24054;50.128;19.730;2022-09-20T04:12:06;4.28;;;3.60;;
38262;SDS011;24054;50.128;19.730;2022-09-20T04:14:41;5.38;;;3.78;;
38262;SDS011;24054;50.128;19.730;2022-09-20T04:17:19;3.50;;;2.95;;
38262;SDS011;24054;50.128;19.730;2022-09-20T04:19:57;4.65;;;3.63;;
38262;SDS011;24054;50.128;19.730;2022-09-20T04:22:31;5.85;;;3.60;;
38262;SDS011;24054;50.128;19.730;2022-09-20T04:24:59;3.55;;;3.25;;
38262;SDS011;24054;50.128;19.730;2022-09-20T04:27:32;3.33;;;3.03;;
38262;SDS011;24054;50.128;19.730;2022-09-20T04:30:07;3.70;;;3.20;;
38262;SDS011;24054;50.128;19.730;2022-09-20T04:32:43;3.40;;;3.10;;
38262;SDS011;24054;50.128;19.730;2022-09-20T04:35:22;3.67;;;3.30;;
38262;SDS011;24054;50.128;19.730;2022-09-20T04:38:16;3.50;;;3.17;;
38262;SDS011;24054;50.128;19.730;2022-09-20T04:40:58;3.65;;;3.28;;
38262;SDS011;24054;50.128;19.730;2022-09-20T04:44:05;3.35;;;3.05;;
38262;SDS011;24054;50.128;19.730;2022-09-20T04:49:59;3.80;;;3.40;;
38262;SDS011;24054;50.128;19.730;2022-09-20T04:52:51;4.00;;;3.60;;
38262;SDS011;24054;50.128;19.730;2022-09-20T04:55:47;3.55;;;3.25;;
38262;SDS011;24054;50.128;19.730;2022-09-20T04:58:36;3.40;;;3.10;;
38262;SDS011;24054;50.128;19.730;2022-09-20T05:04:19;3.97;;;3.58;;
38262;SDS011;24054;50.128;19.730;2022-09-20T05:07:23;3.58;;;3.17;;
38262;SDS011;24054;50.128;19.730;2022-09-20T05:10:31;3.25;;;2.95;;
38262;SDS011;24054;50.128;19.730;2022-09-20T05:13:26;3.15;;;2.83;;
38262;SDS011;24054;50.128;19.730;2022-09-20T05:16:04;3.95;;;3.20;;
38262;SDS011;24054;50.128;19.730;2022-09-20T05:18:47;3.58;;;3.22;;
38262;SDS011;24054;50.128;19.730;2022-09-20T05:21:35;3.40;;;3.10;;
38262;SDS011;24054;50.128;19.730;2022-09-20T05:24:12;3.20;;;2.78;;
38262;SDS011;24054;50.128;19.730;2022-09-20T05:26:59;3.38;;;3.08;;
38262;SDS011;24054;50.128;19.730;2022-09-20T05:29:39;3.63;;;3.25;;
38262;SDS011;24054;50.128;19.730;2022-09-20T05:32:17;3.42;;;3.13;;
38262;SDS011;24054;50.128;19.730;2022-09-20T05:34:53;3.45;;;3.15;;
38262;SDS011;24054;50.128;19.730;2022-09-20T05:37:29;3.17;;;2.58;;
38262;SDS011;24054;50.128;19.730;2022-09-20T05:40:05;3.15;;;2.85;;
38262;SDS011;24054;50.128;19.730;2022-09-20T05:42:46;3.20;;;2.90;;
38262;SDS011;24054;50.128;19.730;2022-09-20T05:48:16;3.30;;;2.95;;
38262;SDS011;24054;50.128;19.730;2022-09-20T05:50:54;4.00;;;3.00;;
38262;SDS011;24054;50.128;19.730;2022-09-20T05:53:41;3.50;;;3.17;;
38262;SDS011;24054;50.128;19.730;2022-09-20T05:56:34;3.45;;;3.15;;
38262;SDS011;24054;50.128;19.730;2022-09-20T05:59:14;3.20;;;2.67;;
38262;SDS011;24054;50.128;19.730;2022-09-20T06:01:56;3.42;;;2.70;;
38262;SDS011;24054;50.128;19.730;2022-09-20T06:04:35;3.10;;;2.80;;
38262;SDS011;24054;50.128;19.730;2022-09-20T06:07:13;3.20;;;2.90;;
38262;SDS011;24054;50.128;19.730;2022-09-20T06:10:04;3.25;;;2.95;;
38262;SDS011;24054;50.128;19.730;2022-09-20T06:12:54;3.22;;;2.85;;
38262;SDS011;24054;50.128;19.730;2022-09-20T06:15:28;3.00;;;2.67;;
38262;SDS011;24054;50.128;19.730;2022-09-20T06:18:06;4.78;;;3.25;;
38262;SDS011;24054;50.128;19.730;2022-09-20T06:20:45;3.40;;;3.03;;
38262;SDS011;24054;50.128;19.730;2022-09-20T06:23:23;3.05;;;2.70;;
38262;SDS011;24054;50.128;19.730;2022-09-20T06:25:51;5.15;;;3.00;;
38262;SDS011;24054;50.128;19.730;2022-09-20T06:28:23;3.22;;;2.92;;
38262;SDS011;24054;50.128;19.730;2022-09-20T06:30:54;3.38;;;3.08;;
38262;SDS011;24054;50.128;19.730;2022-09-20T06:33:22;3.63;;;3.13;;
38262;SDS011;24054;50.128;19.730;2022-09-20T06:35:53;3.20;;;2.90;;
38262;SDS011;24054;50.128;19.730;2022-09-20T06:38:50;3.90;;;3.15;;
38262;SDS011;24054;50.128;19.730;2022-09-20T06:41:43;3.53;;;3.22;;
38262;SDS011;24054;50.128;19.730;2022-09-20T06:44:10;3.47;;;3.10;;
38262;SDS011;24054;50.128;19.730;2022-09-20T06:46:37;3.30;;;2.80;;
38262;SDS011;24054;50.128;19.730;2022-09-20T06:49:05;3.50;;;3.20;;
38262;SDS011;24054;50.128;19.730;2022-09-20T06:51:34;3.40;;;3.10;;
38262;SDS011;24054;50.128;19.730;2022-09-20T06:54:04;3.58;;;3.25;;
38262;SDS011;24054;50.128;19.730;2022-09-20T06:56:35;3.33;;;2.97;;
38262;SDS011;24054;50.128;19.730;2022-09-20T06:59:02;18.05;;;7.90;;
38262;SDS011;24054;50.128;19.730;2022-09-20T07:01:32;21.75;;;11.45;;
38262;SDS011;24054;50.128;19.730;2022-09-20T07:03:59;25.90;;;12.90;;
38262;SDS011;24054;50.128;19.730;2022-09-20T07:06:27;33.88;;;15.80;;
38262;SDS011;24054;50.128;19.730;2022-09-20T07:08:54;44.63;;;17.33;;
38262;SDS011;24054;50.128;19.730;2022-09-20T07:11:23;40.63;;;18.90;;
38262;SDS011;24054;50.128;19.730;2022-09-20T07:13:50;39.72;;;18.92;;
38262;SDS011;24054;50.128;19.730;2022-09-20T07:16:19;36.13;;;17.73;;
38262;SDS011;24054;50.128;19.730;2022-09-20T07:18:47;38.40;;;18.45;;
38262;SDS011;24054;50.128;19.730;2022-09-20T07:21:16;43.85;;;19.10;;
38262;SDS011;24054;50.128;19.730;2022-09-20T07:26:15;48.95;;;22.35;;
38262;SDS011;24054;50.128;19.730;2022-09-20T07:28:45;41.03;;;20.48;;
38262;SDS011;24054;50.128;19.730;2022-09-20T07:31:14;40.97;;;20.27;;
38262;SDS011;24054;50.128;19.730;2022-09-20T07:33:42;45.88;;;20.33;;
38262;SDS011;24054;50.128;19.730;2022-09-20T07:36:09;48.15;;;21.45;;
38262;SDS011;24054;50.128;19.730;2022-09-20T07:38:37;40.78;;;20.10;;
38262;SDS011;24054;50.128;19.730;2022-09-20T07:41:04;48.25;;;20.80;;
38262;SDS011;24054;50.128;19.730;2022-09-20T07:43:32;45.85;;;20.73;;
38262;SDS011;24054;50.128;19.730;2022-09-20T07:46:03;41.35;;;19.23;;
38262;SDS011;24054;50.128;19.730;2022-09-20T07:48:31;44.97;;;19.90;;
38262;SDS011;24054;50.128;19.730;2022-09-20T07:51:01;42.65;;;20.52;;
38262;SDS011;24054;50.128;19.730;2022-09-20T07:53:29;35.42;;;18.58;;
38262;SDS011;24054;50.128;19.730;2022-09-20T07:55:57;38.03;;;19.23;;
38262;SDS011;24054;50.128;19.730;2022-09-20T07:58:25;38.33;;;18.60;;
38262;SDS011;24054;50.128;19.730;2022-09-20T08:00:54;36.83;;;18.10;;
38262;SDS011;24054;50.128;19.730;2022-09-20T08:03:24;39.58;;;18.42;;
38262;SDS011;24054;50.128;19.730;2022-09-20T08:08:24;34.67;;;16.95;;
38262;SDS011;24054;50.128;19.730;2022-09-20T08:10:52;38.15;;;18.05;;
38262;SDS011;24054;50.128;19.730;2022-09-20T08:13:19;32.65;;;16.70;;
38262;SDS011;24054;50.128;19.730;2022-09-20T08:15:47;32.97;;;16.67;;
38262;SDS011;24054;50.128;19.730;2022-09-20T08:18:14;31.90;;;16.35;;
38262;SDS011;24054;50.128;19.730;2022-09-20T08:20:43;34.97;;;17.33;;
38262;SDS011;24054;50.128;19.730;2022-09-20T08:23:10;46.38;;;15.77;;
38262;SDS011;24054;50.128;19.730;2022-09-20T08:25:37;29.50;;;15.40;;
38262;SDS011;24054;50.128;19.730;2022-09-20T08:28:04;30.73;;;15.80;;
38262;SDS011;24054;50.128;19.730;2022-09-20T08:30:31;36.83;;;15.93;;
38262;SDS011;24054;50.128;19.730;2022-09-20T08:32:58;32.75;;;14.65;;
38262;SDS011;24054;50.128;19.730;2022-09-20T08:35:26;29.40;;;14.48;;
38262;SDS011;24054;50.128;19.730;2022-09-20T08:37:55;28.88;;;14.25;;
38262;SDS011;24054;50.128;19.730;2022-09-20T08:40:23;32.10;;;14.60;;
38262;SDS011;24054;50.128;19.730;2022-09-20T08:42:51;31.10;;;14.85;;
38262;SDS011;24054;50.128;19.730;2022-09-20T08:45:20;28.45;;;13.98;;
38262;SDS011;24054;50.128;19.730;2022-09-20T08:47:50;31.75;;;14.98;;
38262;SDS011;24054;50.128;19.730;2022-09-20T08:50:19;42.45;;;16.30;;
38262;SDS011;24054;50.128;19.730;2022-09-20T08:52:47;29.83;;;14.37;;
38262;SDS011;24054;50.128;19.730;2022-09-20T08:55:20;26.50;;;13.10;;
38262;SDS011;24054;50.128;19.730;2022-09-20T08:57:51;28.30;;;13.40;;
38262;SDS011;24054;50.128;19.730;2022-09-20T09:00:21;28.45;;;13.43;;
38262;SDS011;24054;50.128;19.730;2022-09-20T09:02:51;27.35;;;14.07;;
38262;SDS011;24054;50.128;19.730;2022-09-20T09:08:09;29.00;;;13.70;;
38262;SDS011;24054;50.128;19.730;2022-09-20T09:10:42;26.25;;;13.38;;
38262;SDS011;24054;50.128;19.730;2022-09-20T09:13:13;26.25;;;12.48;;
38262;SDS011;24054;50.128;19.730;2022-09-20T09:15:45;25.08;;;12.52;;
38262;SDS011;24054;50.128;19.730;2022-09-20T09:18:18;27.65;;;12.98;;
38262;SDS011;24054;50.128;19.730;2022-09-20T09:20:45;26.45;;;12.63;;
38262;SDS011;24054;50.128;19.730;2022-09-20T09:23:20;23.98;;;12.73;;
38262;SDS011;24054;50.128;19.730;2022-09-20T09:25:51;25.67;;;13.90;;
38262;SDS011;24054;50.128;19.730;2022-09-20T09:28:21;23.15;;;12.40;;
38262;SDS011;24054;50.128;19.730;2022-09-20T09:30:50;28.42;;;12.43;;
38262;SDS011;24054;50.128;19.730;2022-09-20T09:33:21;24.90;;;12.25;;
38262;SDS011;24054;50.128;19.730;2022-09-20T09:35:54;22.30;;;11.48;;
38262;SDS011;24054;50.128;19.730;2022-09-20T09:38:24;23.30;;;11.77;;
38262;SDS011;24054;50.128;19.730;2022-09-20T09:40:55;21.48;;;10.93;;
38262;SDS011;24054;50.128;19.730;2022-09-20T09:43:24;21.63;;;10.85;;
38262;SDS011;24054;50.128;19.730;2022-09-20T09:45:54;21.35;;;11.25;;
38262;SDS011;24054;50.128;19.730;2022-09-20T09:48:42;15.20;;;8.73;;
38262;SDS011;24054;50.128;19.730;2022-09-20T09:51:14;11.93;;;6.88;;
38262;SDS011;24054;50.128;19.730;2022-09-20T09:53:43;14.50;;;7.82;;
38262;SDS011;24054;50.128;19.730;2022-09-20T09:56:22;10.77;;;6.10;;
38262;SDS011;24054;50.128;19.730;2022-09-20T09:59:08;6.07;;;3.92;;
38262;SDS011;24054;50.128;19.730;2022-09-20T10:01:51;8.57;;;4.45;;
38262;SDS011;24054;50.128;19.730;2022-09-20T10:04:27;6.47;;;4.03;;
38262;SDS011;24054;50.128;19.730;2022-09-20T10:07:03;7.57;;;5.05;;
38262;SDS011;24054;50.128;19.730;2022-09-20T10:09:52;6.88;;;5.15;;
38262;SDS011;24054;50.128;19.730;2022-09-20T10:12:41;7.18;;;5.30;;
38262;SDS011;24054;50.128;19.730;2022-09-20T10:15:23;11.95;;;6.13;;
38262;SDS011;24054;50.128;19.730;2022-09-20T10:18:02;10.00;;;5.45;;
38262;SDS011;24054;50.128;19.730;2022-09-20T10:20:48;8.23;;;4.50;;
38262;SDS011;24054;50.128;19.730;2022-09-20T10:23:34;10.15;;;4.93;;
38262;SDS011;24054;50.128;19.730;2022-09-20T10:26:20;6.15;;;4.10;;
38262;SDS011;24054;50.128;19.730;2022-09-20T10:29:02;6.10;;;4.13;;
38262;SDS011;24054;50.128;19.730;2022-09-20T10:31:43;6.82;;;3.38;;
38262;SDS011;24054;50.128;19.730;2022-09-20T10:34:22;7.88;;;3.72;;
38262;SDS011;24054;50.128;19.730;2022-09-20T10:37:10;5.38;;;3.78;;
38262;SDS011;24054;50.128;19.730;2022-09-20T10:39:43;6.28;;;4.05;;
38262;SDS011;24054;50.128;19.730;2022-09-20T10:42:21;8.65;;;4.68;;
38262;SDS011;24054;50.128;19.730;2022-09-20T10:45:32;7.22;;;4.45;;
38262;SDS011;24054;50.128;19.730;2022-09-20T10:48:08;8.10;;;4.30;;
38262;SDS011;24054;50.128;19.730;2022-09-20T10:50:44;9.80;;;4.03;;
38262;SDS011;24054;50.128;19.730;2022-09-20T10:53:21;6.57;;;3.88;;
38262;SDS011;24054;50.128;19.730;2022-09-20T10:55:58;5.60;;;3.63;;
38262;SDS011;24054;50.128;19.730;2022-09-20T10:58:47;7.07;;;3.80;;
38262;SDS011;24054;50.128;19.730;2022-09-20T11:01:53;7.75;;;4.43;;
38262;SDS011;24054;50.128;19.730;2022-09-20T11:04:43;6.13;;;3.90;;
38262;SDS011;24054;50.128;19.730;2022-09-20T11:07:25;7.88;;;4.43;;
38262;SDS011;24054;50.128;19.730;2022-09-20T11:10:05;7.57;;;4.35;;
38262;SDS011;24054;50.128;19.730;2022-09-20T11:12:40;8.18;;;4.68;;
38262;SDS011;24054;50.128;19.730;2022-09-20T11:15:13;7.30;;;4.70;;
38262;SDS011;24054;50.128;19.730;2022-09-20T11:17:46;9.05;;;4.70;;
38262;SDS011;24054;50.128;19.730;2022-09-20T11:20:20;7.40;;;4.38;;
38262;SDS011;24054;50.128;19.730;2022-09-20T11:22:54;9.63;;;5.22;;
38262;SDS011;24054;50.128;19.730;2022-09-20T11:25:28;7.35;;;4.57;;
38262;SDS011;24054;50.128;19.730;2022-09-20T11:28:00;11.95;;;4.60;;
38262;SDS011;24054;50.128;19.730;2022-09-20T11:30:35;11.88;;;4.50;;
38262;SDS011;24054;50.128;19.730;2022-09-20T11:33:10;12.60;;;4.95;;
38262;SDS011;24054;50.128;19.730;2022-09-20T11:35:46;8.82;;;4.68;;
38262;SDS011;24054;50.128;19.730;2022-09-20T11:38:16;11.10;;;4.93;;
38262;SDS011;24054;50.128;19.730;2022-09-20T11:40:49;11.85;;;4.78;;
38262;SDS011;24054;50.128;19.730;2022-09-20T11:43:20;7.35;;;4.30;;
38262;SDS011;24054;50.128;19.730;2022-09-20T11:45:50;8.90;;;5.15;;
38262;SDS011;24054;50.128;19.730;2022-09-20T11:48:25;10.30;;;4.43;;
38262;SDS011;24054;50.128;19.730;2022-09-20T11:54:22;7.28;;;4.53;;
38262;SDS011;24054;50.128;19.730;2022-09-20T11:57:03;7.35;;;4.05;;
38262;SDS011;24054;50.128;19.730;2022-09-20T11:59:33;9.43;;;3.97;;
38262;SDS011;24054;50.128;19.730;2022-09-20T12:02:02;8.23;;;4.05;;
38262;SDS011;24054;50.128;19.730;2022-09-20T12:04:42;5.13;;;4.03;;
38262;SDS011;24054;50.128;19.730;2022-09-20T12:07:14;4.55;;;3.53;;
38262;SDS011;24054;50.128;19.730;2022-09-20T12:09:44;10.70;;;3.70;;
38262;SDS011;24054;50.128;19.730;2022-09-20T12:12:24;6.43;;;3.78;;
38262;SDS011;24054;50.128;19.730;2022-09-20T12:14:57;5.80;;;3.88;;
38262;SDS011;24054;50.128;19.730;2022-09-20T12:23:45;6.93;;;3.40;;
38262;SDS011;24054;50.128;19.730;2022-09-20T12:26:36;3.95;;;3.10;;
38262;SDS011;24054;50.128;19.730;2022-09-20T12:39:02;5.00;;;3.15;;
38262;SDS011;24054;50.128;19.730;2022-09-20T12:41:48;5.30;;;3.33;;
38262;SDS011;24054;50.128;19.730;2022-09-20T12:47:04;7.40;;;3.45;;
38262;SDS011;24054;50.128;19.730;2022-09-20T12:49:42;7.72;;;2.95;;
38262;SDS011;24054;50.128;19.730;2022-09-20T12:52:46;16.48;;;3.13;;
38262;SDS011;24054;50.128;19.730;2022-09-20T12:55:27;4.72;;;3.28;;
38262;SDS011;24054;50.128;19.730;2022-09-20T12:58:03;4.35;;;2.80;;
38262;SDS011;24054;50.128;19.730;2022-09-20T13:00:36;4.78;;;3.13;;
38262;SDS011;24054;50.128;19.730;2022-09-20T13:03:10;7.85;;;3.13;;
38262;SDS011;24054;50.128;19.730;2022-09-20T13:05:48;3.97;;;2.67;;
38262;SDS011;24054;50.128;19.730;2022-09-20T13:08:17;7.15;;;2.80;;
38262;SDS011;24054;50.128;19.730;2022-09-20T13:10:51;4.45;;;2.63;;
38262;SDS011;24054;50.128;19.730;2022-09-20T13:13:30;5.85;;;3.05;;
38262;SDS011;24054;50.128;19.730;2022-09-20T13:16:00;4.63;;;2.95;;
38262;SDS011;24054;50.128;19.730;2022-09-20T13:18:30;6.53;;;2.90;;
38262;SDS011;24054;50.128;19.730;2022-09-20T13:20:59;6.20;;;2.33;;
38262;SDS011;24054;50.128;19.730;2022-09-20T13:23:31;8.65;;;2.92;;
38262;SDS011;24054;50.128;19.730;2022-09-20T13:26:11;3.67;;;2.70;;
38262;SDS011;24054;50.128;19.730;2022-09-20T13:28:43;6.90;;;3.00;;
38262;SDS011;24054;50.128;19.730;2022-09-20T13:31:22;5.38;;;2.95;;
38262;SDS011;24054;50.128;19.730;2022-09-20T13:33:54;5.10;;;2.55;;
38262;SDS011;24054;50.128;19.730;2022-09-20T13:36:37;6.72;;;2.67;;
38262;SDS011;24054;50.128;19.730;2022-09-20T13:39:04;3.67;;;2.63;;
38262;SDS011;24054;50.128;19.730;2022-09-20T13:41:34;5.55;;;2.55;;
38262;SDS011;24054;50.128;19.730;2022-09-20T13:44:03;6.07;;;2.50;;
38262;SDS011;24054;50.128;19.730;2022-09-20T13:46:30;3.50;;;2.83;;
38262;SDS011;24054;50.128;19.730;2022-09-20T13:49:08;5.78;;;2.50;;
38262;SDS011;24054;50.128;19.730;2022-09-20T13:51:42;5.57;;;2.45;;
38262;SDS011;24054;50.128;19.730;2022-09-20T13:54:19;3.72;;;2.63;;
38262;SDS011;24054;50.128;19.730;2022-09-20T13:56:52;5.63;;;2.55;;
38262;SDS011;24054;50.128;19.730;2022-09-20T13:59:22;6.90;;;2.60;;
38262;SDS011;24054;50.128;19.730;2022-09-20T14:01:52;4.93;;;2.67;;
38262;SDS011;24054;50.128;19.730;2022-09-20T14:04:23;6.85;;;2.22;;
38262;SDS011;24054;50.128;19.730;2022-09-20T14:06:53;6.15;;;3.03;;
38262;SDS011;24054;50.128;19.730;2022-09-20T14:09:24;4.28;;;2.15;;
38262;SDS011;24054;50.128;19.730;2022-09-20T14:11:57;4.40;;;2.40;;
38262;SDS011;24054;50.128;19.730;2022-09-20T14:14:25;5.45;;;2.80;;
38262;SDS011;24054;50.128;19.730;2022-09-20T14:16:54;5.70;;;2.05;;
38262;SDS011;24054;50.128;19.730;2022-09-20T14:19:24;8.63;;;2.83;;
38262;SDS011;24054;50.128;19.730;2022-09-20T14:21:56;5.20;;;2.60;;
38262;SDS011;24054;50.128;19.730;2022-09-20T14:24:29;5.45;;;2.17;;
38262;SDS011;24054;50.128;19.730;2022-09-20T14:27:04;4.55;;;2.60;;
38262;SDS011;24054;50.128;19.730;2022-09-20T14:29:43;7.05;;;2.55;;
38262;SDS011;24054;50.128;19.730;2022-09-20T14:35:11;9.73;;;2.42;;
38262;SDS011;24054;50.128;19.730;2022-09-20T14:37:41;4.68;;;2.58;;
38262;SDS011;24054;50.128;19.730;2022-09-20T14:40:19;4.30;;;2.20;;
38262;SDS011;24054;50.128;19.730;2022-09-20T14:42:50;10.18;;;3.00;;
38262;SDS011;24054;50.128;19.730;2022-09-20T14:45:23;4.43;;;2.42;;
38262;SDS011;24054;50.128;19.730;2022-09-20T14:47:59;7.90;;;2.28;;
38262;SDS011;24054;50.128;19.730;2022-09-20T14:50:29;9.00;;;2.38;;
38262;SDS011;24054;50.128;19.730;2022-09-20T14:52:59;8.27;;;2.45;;
38262;SDS011;24054;50.128;19.730;2022-09-20T14:55:29;12.68;;;2.63;;
38262;SDS011;24054;50.128;19.730;2022-09-20T14:58:00;5.88;;;2.15;;
38262;SDS011;24054;50.128;19.730;2022-09-20T15:00:44;6.45;;;2.53;;
38262;SDS011;24054;50.128;19.730;2022-09-20T15:03:14;13.23;;;2.78;;
38262;SDS011;24054;50.128;19.730;2022-09-20T15:05:44;6.88;;;2.20;;
38262;SDS011;24054;50.128;19.730;2022-09-20T15:08:15;5.78;;;2.67;;
38262;SDS011;24054;50.128;19.730;2022-09-20T15:10:43;10.40;;;2.65;;
38262;SDS011;24054;50.128;19.730;2022-09-20T15:13:12;10.23;;;3.08;;
38262;SDS011;24054;50.128;19.730;2022-09-20T15:15:40;9.15;;;2.40;;
38262;SDS011;24054;50.128;19.730;2022-09-20T15:18:11;12.88;;;2.72;;
38262;SDS011;24054;50.128;19.730;2022-09-20T15:20:45;6.25;;;2.60;;
38262;SDS011;24054;50.128;19.730;2022-09-20T15:23:13;4.85;;;2.15;;
38262;SDS011;24054;50.128;19.730;2022-09-20T15:25:40;8.20;;;2.45;;
38262;SDS011;24054;50.128;19.730;2022-09-20T15:28:09;10.48;;;2.70;;
38262;SDS011;24054;50.128;19.730;2022-09-20T15:30:41;7.22;;;2.33;;
38262;SDS011;24054;50.128;19.730;2022-09-20T15:33:09;9.88;;;2.30;;
38262;SDS011;24054;50.128;19.730;2022-09-20T15:35:36;9.13;;;2.30;;
38262;SDS011;24054;50.128;19.730;2022-09-20T15:38:03;9.20;;;2.63;;
38262;SDS011;24054;50.128;19.730;2022-09-20T15:40:33;7.82;;;1.90;;
38262;SDS011;24054;50.128;19.730;2022-09-20T15:43:08;5.32;;;2.42;;
38262;SDS011;24054;50.128;19.730;2022-09-20T15:45:44;4.63;;;2.20;;
38262;SDS011;24054;50.128;19.730;2022-09-20T15:48:15;6.90;;;2.90;;
38262;SDS011;24054;50.128;19.730;2022-09-20T15:50:49;7.45;;;2.55;;
38262;SDS011;24054;50.128;19.730;2022-09-20T15:53:26;4.47;;;2.20;;
38262;SDS011;24054;50.128;19.730;2022-09-20T15:55:56;7.70;;;2.30;;
38262;SDS011;24054;50.128;19.730;2022-09-20T15:58:28;8.35;;;2.53;;
38262;SDS011;24054;50.128;19.730;2022-09-20T16:01:06;8.10;;;2.38;;
38262;SDS011;24054;50.128;19.730;2022-09-20T16:03:35;6.05;;;2.17;;
38262;SDS011;24054;50.128;19.730;2022-09-20T16:06:03;4.55;;;2.40;;
38262;SDS011;24054;50.128;19.730;2022-09-20T16:08:32;7.38;;;3.20;;
38262;SDS011;24054;50.128;19.730;2022-09-20T16:11:00;9.15;;;2.67;;
38262;SDS011;24054;50.128;19.730;2022-09-20T16:13:29;4.83;;;2.23;;
38262;SDS011;24054;50.128;19.730;2022-09-20T16:15:57;10.23;;;2.70;;
38262;SDS011;24054;50.128;19.730;2022-09-20T16:21:11;4.20;;;1.92;;
38262;SDS011;24054;50.128;19.730;2022-09-20T16:23:39;4.78;;;2.35;;